createdAt,value
2023-02-02T00:00:09.722Z,80.80
2023-02-02T00:02:38.600Z,80.90
2023-02-02T00:05:07.806Z,81.00
2023-02-02T00:07:36.547Z,81.10
2023-02-02T00:10:07.403Z,81.20
2023-02-02T00:12:37.553Z,81.20
2023-02-02T00:15:06.110Z,81.20
2023-02-02T00:17:35.337Z,81.10
2023-02-02T00:20:05.479Z,81.10
2023-02-02T00:22:33.897Z,81.10
2023-02-02T00:25:01.895Z,81.00
2023-02-02T00:27:32.001Z,80.90
2023-02-02T00:30:01.738Z,80.90
2023-02-02T00:32:30.973Z,80.70
2023-02-02T00:37:43.440Z,80.40
2023-02-02T00:40:14.087Z,80.30
2023-02-02T00:42:43.338Z,80.20
2023-02-02T00:45:36.236Z,80.20
2023-02-02T00:48:06.827Z,80.20
2023-02-02T00:50:35.226Z,80.00
2023-02-02T00:53:07.012Z,80.00
2023-02-02T01:01:30.572Z,80.00
2023-02-02T01:04:03.259Z,80.00
2023-02-02T01:06:32.574Z,80.10
2023-02-02T01:09:01.216Z,80.10
2023-02-02T01:11:31.072Z,80.20
2023-02-02T01:13:59.720Z,80.50
2023-02-02T01:16:28.310Z,80.50
2023-02-02T01:18:57.066Z,80.70
2023-02-02T01:24:13.075Z,80.80
2023-02-02T01:26:42.726Z,80.80
2023-02-02T01:29:13.562Z,80.70
2023-02-02T01:31:42.364Z,80.80
2023-02-02T01:34:12.160Z,80.70
2023-02-02T01:36:40.415Z,80.70
2023-02-02T01:39:34.636Z,80.70
2023-02-02T01:42:16.732Z,80.90
2023-02-02T01:45:04.272Z,81.00
2023-02-02T01:47:35.395Z,81.30
2023-02-02T01:50:04.810Z,81.50
2023-02-02T01:52:33.979Z,81.60
2023-02-02T01:55:10.786Z,81.50
2023-02-02T01:57:42.456Z,81.70
2023-02-02T02:00:13.375Z,81.80
2023-02-02T02:02:42.609Z,81.90
2023-02-02T02:05:11.172Z,82.10
2023-02-02T02:07:41.663Z,82.20
2023-02-02T02:10:10.749Z,82.30
2023-02-02T02:12:40.605Z,82.30
2023-02-02T02:15:27.533Z,82.20
2023-02-02T02:18:02.352Z,82.20
2023-02-02T02:20:53.737Z,82.30
2023-02-02T02:24:00.145Z,82.30
2023-02-02T02:26:41.121Z,82.20
2023-02-02T02:29:24.310Z,82.10
2023-02-02T02:32:06.696Z,82.10
2023-02-02T02:34:41.613Z,82.20
2023-02-02T02:37:11.876Z,82.20
2023-02-02T02:39:44.216Z,82.30
2023-02-02T02:42:16.231Z,82.30
2023-02-02T02:44:45.333Z,82.50
2023-02-02T02:47:15.767Z,82.70
2023-02-02T02:49:44.664Z,82.80
2023-02-02T02:52:13.825Z,82.70
2023-02-02T02:54:45.305Z,82.60
2023-02-02T02:57:20.641Z,82.70
2023-02-02T02:59:54.466Z,82.90
2023-02-02T03:02:32.502Z,82.90
2023-02-02T03:05:07.343Z,82.90
2023-02-02T03:07:38.817Z,82.90
2023-02-02T03:10:08.842Z,82.90
2023-02-02T03:12:44.934Z,83.00
2023-02-02T03:15:13.899Z,82.90
2023-02-02T03:17:43.871Z,82.90
2023-02-02T03:20:12.380Z,82.80
2023-02-02T03:22:40.321Z,82.70
2023-02-02T03:25:11.390Z,82.60
2023-02-02T03:27:39.529Z,82.60
2023-02-02T03:30:08.845Z,82.50
2023-02-02T03:32:37.477Z,82.50
2023-02-02T03:35:07.884Z,82.50
2023-02-02T03:37:36.559Z,82.30
2023-02-02T03:40:04.930Z,82.20
2023-02-02T03:42:32.926Z,82.10
2023-02-02T03:45:01.350Z,82.10
2023-02-02T03:47:30.043Z,82.00
2023-02-02T03:49:58.939Z,81.70
2023-02-02T03:52:29.022Z,81.70
2023-02-02T03:54:57.389Z,81.60
2023-02-02T03:57:25.887Z,81.50
2023-02-02T03:59:54.152Z,81.40
2023-02-02T04:02:22.500Z,81.40
2023-02-02T04:04:50.819Z,81.20
2023-02-02T04:07:19.029Z,81.30
2023-02-02T04:09:48.961Z,81.30
2023-02-02T04:12:17.063Z,81.20
2023-02-02T04:14:45.075Z,81.10
2023-02-02T04:17:13.106Z,81.10
2023-02-02T04:19:41.387Z,81.00
2023-02-02T04:22:09.664Z,80.90
2023-02-02T04:24:38.168Z,80.90
2023-02-02T04:27:07.629Z,80.90
2023-02-02T04:29:35.644Z,80.90
2023-02-02T04:32:03.974Z,81.00
2023-02-02T04:34:32.546Z,80.90
2023-02-02T04:37:00.923Z,81.00
2023-02-02T04:39:29.010Z,80.90
2023-02-02T04:41:57.220Z,80.90
2023-02-02T04:44:26.832Z,80.90
2023-02-02T04:46:54.831Z,81.00
2023-02-02T04:49:23.231Z,80.90
2023-02-02T04:51:51.995Z,81.00
2023-02-02T04:54:20.696Z,81.00
2023-02-02T04:56:49.256Z,81.00
2023-02-02T04:59:17.542Z,81.00
2023-02-02T05:01:47.486Z,81.00
2023-02-02T05:04:16.205Z,81.00
2023-02-02T05:06:44.274Z,81.00
2023-02-02T05:09:13.141Z,80.80
2023-02-02T05:11:44.569Z,80.80
2023-02-02T05:14:12.887Z,80.90
2023-02-02T05:16:41.133Z,80.80
2023-02-02T05:19:11.932Z,80.90
2023-02-02T05:21:39.932Z,81.00
2023-02-02T05:24:08.454Z,81.00
2023-02-02T05:26:36.646Z,81.00
2023-02-02T05:29:06.679Z,80.80
2023-02-02T05:31:34.754Z,80.80
2023-02-02T05:34:03.276Z,80.80
2023-02-02T05:36:32.987Z,81.00
2023-02-02T05:39:01.668Z,81.10
2023-02-02T05:41:30.141Z,81.20
2023-02-02T05:44:00.179Z,81.20
2023-02-02T05:46:30.245Z,81.30
2023-02-02T05:49:00.106Z,81.50
2023-02-02T05:51:30.227Z,81.40
2023-02-02T05:54:01.016Z,81.50
2023-02-02T05:56:29.243Z,81.50
2023-02-02T05:58:57.404Z,81.50
2023-02-02T06:01:25.782Z,81.50
2023-02-02T06:03:54.045Z,81.60
2023-02-02T06:06:22.327Z,81.60
2023-02-02T06:08:50.581Z,81.70
2023-02-02T06:11:20.675Z,81.80
2023-02-02T06:13:48.705Z,81.80
2023-02-02T06:16:17.090Z,81.90
2023-02-02T06:18:45.298Z,81.90
2023-02-02T06:21:13.334Z,81.80
2023-02-02T06:23:45.792Z,81.60
2023-02-02T06:26:13.986Z,81.70
2023-02-02T06:28:48.978Z,81.60
2023-02-02T06:31:19.177Z,81.40
2023-02-02T06:33:47.776Z,81.40
2023-02-02T06:36:15.919Z,81.30
2023-02-02T06:38:44.338Z,81.20
2023-02-02T06:41:12.597Z,81.20
2023-02-02T06:43:41.103Z,81.10
2023-02-02T06:46:11.590Z,81.00
2023-02-02T06:48:39.635Z,81.00
2023-02-02T06:51:08.510Z,80.90
2023-02-02T06:53:37.023Z,80.90
2023-02-02T06:56:05.953Z,80.90
2023-02-02T06:58:35.324Z,80.90
2023-02-02T07:01:05.351Z,80.70
2023-02-02T07:03:35.534Z,80.80
2023-02-02T07:06:11.750Z,80.90
2023-02-02T07:08:39.913Z,80.80
2023-02-02T07:11:12.393Z,80.90
2023-02-02T07:13:45.289Z,80.80
2023-02-02T07:16:14.052Z,80.70
2023-02-02T07:18:44.622Z,80.70
2023-02-02T07:21:17.631Z,80.60
2023-02-02T07:23:47.213Z,80.20
2023-02-02T07:26:16.346Z,80.20
2023-02-02T07:28:45.372Z,80.20
2023-02-02T07:31:16.780Z,80.10
2023-02-02T07:33:47.955Z,80.10
2023-02-02T07:36:17.647Z,80.00
2023-02-02T07:38:47.297Z,79.90
2023-02-02T07:41:17.158Z,79.80
2023-02-02T07:43:48.015Z,79.80
2023-02-02T07:46:16.841Z,79.70
2023-02-02T07:48:46.854Z,79.90
2023-02-02T07:51:16.564Z,79.80
2023-02-02T07:53:45.390Z,79.80
2023-02-02T07:56:14.479Z,79.50
2023-02-02T07:58:43.076Z,79.70
2023-02-02T08:01:12.391Z,79.50
2023-02-02T08:03:41.188Z,79.30
2023-02-02T08:06:13.202Z,79.20
2023-02-02T08:08:41.559Z,79.30
2023-02-02T08:11:11.248Z,79.40
2023-02-02T08:13:39.720Z,79.50
2023-02-02T08:16:09.064Z,79.20
2023-02-02T08:18:38.491Z,79.40
2023-02-02T08:21:09.856Z,79.10
2023-02-02T08:23:40.412Z,79.00
2023-02-02T08:26:09.856Z,79.10
2023-02-02T08:28:38.564Z,79.00
2023-02-02T08:31:08.096Z,79.00
2023-02-02T08:33:36.779Z,78.70
2023-02-02T08:36:05.447Z,78.70
2023-02-02T08:38:33.943Z,78.50
2023-02-02T08:41:07.748Z,78.70
2023-02-02T08:43:36.342Z,78.30
2023-02-02T08:46:05.792Z,78.40
2023-02-02T08:48:34.954Z,78.40
2023-02-02T08:51:03.916Z,78.50
2023-02-02T08:53:32.688Z,78.20
2023-02-02T08:56:01.443Z,78.00
2023-02-02T08:58:33.867Z,77.90
2023-02-02T09:01:06.181Z,77.70
2023-02-02T09:03:34.490Z,77.40
2023-02-02T09:06:07.844Z,77.30
2023-02-02T09:08:36.420Z,77.10
2023-02-02T09:11:05.638Z,77.00
2023-02-02T09:13:35.416Z,76.90
2023-02-02T09:16:04.266Z,76.90
2023-02-02T09:18:32.693Z,76.80
2023-02-02T09:21:02.361Z,76.10
2023-02-02T09:23:31.178Z,76.50
2023-02-02T09:26:02.643Z,76.40
2023-02-02T09:28:31.996Z,76.40
2023-02-02T09:31:08.569Z,76.10
2023-02-02T09:33:39.243Z,76.40
2023-02-02T09:36:09.864Z,76.20
2023-02-02T09:38:38.510Z,76.40
2023-02-02T09:41:31.726Z,76.20
2023-02-02T09:44:04.319Z,76.10
2023-02-02T09:46:40.274Z,76.00
2023-02-02T09:49:10.026Z,76.00
2023-02-02T09:51:40.911Z,75.90
2023-02-02T09:54:14.590Z,75.90
2023-02-02T09:56:45.225Z,75.40
2023-02-02T09:59:20.526Z,75.50
2023-02-02T10:01:53.943Z,75.30
2023-02-02T10:04:24.277Z,75.90
2023-02-02T10:06:53.927Z,75.60
2023-02-02T10:09:30.181Z,75.50
2023-02-02T10:12:01.761Z,75.50
2023-02-02T10:14:34.897Z,75.40
2023-02-02T10:17:13.218Z,75.40
2023-02-02T10:19:42.541Z,75.20
2023-02-02T10:22:13.245Z,75.20
2023-02-02T10:24:41.755Z,75.40
2023-02-02T10:27:14.123Z,75.30
2023-02-02T10:29:49.078Z,75.10
2023-02-02T10:32:23.945Z,75.10
2023-02-02T10:35:14.633Z,75.10
2023-02-02T10:37:45.963Z,75.00
2023-02-02T10:40:17.716Z,75.10
2023-02-02T10:43:12.051Z,75.00
2023-02-02T10:45:42.227Z,75.10
2023-02-02T10:48:15.622Z,75.10
2023-02-02T10:50:45.166Z,75.10
2023-02-02T10:53:14.979Z,75.10
2023-02-02T10:55:46.035Z,74.90
2023-02-02T10:58:21.995Z,75.00
2023-02-02T11:00:51.709Z,74.90
2023-02-02T11:03:23.206Z,74.90
2023-02-02T11:06:08.528Z,74.50
2023-02-02T11:08:38.204Z,74.60
2023-02-02T11:11:12.360Z,74.10
2023-02-02T11:13:43.386Z,74.80
2023-02-02T11:16:22.495Z,74.60
2023-02-02T11:18:53.620Z,74.70
2023-02-02T11:21:23.484Z,74.80
2023-02-02T11:24:00.374Z,74.70
2023-02-02T11:26:29.934Z,74.50
2023-02-02T11:29:00.005Z,74.60
2023-02-02T11:31:36.207Z,74.40
2023-02-02T11:34:22.656Z,74.30
2023-02-02T11:37:03.102Z,74.40
2023-02-02T11:39:32.563Z,74.30
2023-02-02T11:42:06.981Z,74.60
2023-02-02T11:44:36.024Z,74.80
2023-02-02T11:47:06.008Z,74.70
2023-02-02T11:49:37.942Z,75.10
2023-02-02T11:52:15.079Z,74.90
2023-02-02T11:54:47.540Z,75.20
2023-02-02T11:57:19.147Z,75.10
2023-02-02T11:59:47.687Z,75.20
2023-02-02T12:02:27.965Z,75.20
2023-02-02T12:04:56.905Z,75.20
2023-02-02T12:07:28.318Z,75.30
2023-02-02T12:10:00.327Z,75.10
2023-02-02T12:12:43.499Z,75.40
2023-02-02T12:15:20.301Z,75.30
2023-02-02T12:17:49.098Z,75.10
2023-02-02T12:20:21.075Z,74.90
2023-02-02T12:22:58.078Z,74.80
2023-02-02T12:25:36.547Z,74.90
2023-02-02T12:28:11.277Z,74.60
2023-02-02T12:30:43.135Z,74.60
2023-02-02T12:33:17.729Z,74.50
2023-02-02T12:35:58.089Z,74.40
2023-02-02T12:38:32.860Z,74.50
2023-02-02T12:41:08.276Z,74.20
2023-02-02T12:43:40.792Z,73.80
2023-02-02T12:46:17.053Z,73.60
2023-02-02T12:48:52.980Z,73.70
2023-02-02T12:51:32.831Z,73.70
2023-02-02T12:54:34.998Z,73.70
2023-02-02T12:57:09.369Z,74.20
2023-02-02T12:59:52.622Z,74.30
2023-02-02T13:02:24.132Z,74.10
2023-02-02T13:05:02.034Z,74.10
2023-02-02T13:07:42.508Z,73.70
2023-02-02T13:10:18.352Z,74.00
2023-02-02T13:12:51.094Z,74.10
2023-02-02T13:15:24.184Z,74.20
2023-02-02T13:17:54.874Z,74.10
2023-02-02T13:20:31.094Z,73.90
2023-02-02T13:23:02.152Z,74.10
2023-02-02T13:25:34.030Z,74.30
2023-02-02T13:28:03.124Z,74.40
2023-02-02T13:30:33.048Z,74.80
2023-02-02T13:33:02.679Z,75.30
2023-02-02T13:35:33.519Z,75.20
2023-02-02T13:38:05.445Z,75.40
2023-02-02T13:40:39.218Z,75.40
2023-02-02T13:43:13.579Z,75.40
2023-02-02T13:45:48.040Z,75.90
2023-02-02T13:48:21.074Z,76.10
2023-02-02T13:50:56.098Z,76.00
2023-02-02T13:53:36.841Z,76.00
2023-02-02T13:56:10.835Z,75.80
2023-02-02T13:58:45.655Z,75.60
2023-02-02T14:01:15.205Z,75.50
2023-02-02T14:03:51.790Z,75.70
2023-02-02T14:06:22.291Z,75.70
2023-02-02T14:08:53.000Z,75.30
2023-02-02T14:11:28.006Z,75.30
2023-02-02T14:14:17.103Z,74.70
2023-02-02T14:16:52.873Z,74.60
2023-02-02T14:19:41.985Z,74.80
2023-02-02T14:22:19.822Z,75.00
2023-02-02T14:24:49.522Z,74.80
2023-02-02T14:27:36.607Z,74.40
2023-02-02T14:30:22.026Z,74.30
2023-02-02T14:32:50.753Z,74.30
2023-02-02T14:35:37.696Z,74.40
2023-02-02T14:38:09.485Z,74.40
2023-02-02T14:40:46.838Z,74.10
2023-02-02T14:43:41.181Z,74.10
2023-02-02T14:46:28.649Z,74.40
2023-02-02T14:49:13.426Z,74.40
2023-02-02T14:51:47.895Z,74.50
2023-02-02T14:54:20.914Z,74.50
2023-02-02T14:56:51.259Z,74.70
2023-02-02T14:59:21.259Z,74.40
2023-02-02T15:01:55.915Z,74.70
2023-02-02T15:04:38.211Z,74.90
2023-02-02T15:07:40.270Z,75.00
2023-02-02T15:10:11.142Z,74.80
2023-02-02T15:12:41.216Z,74.90
2023-02-02T15:15:19.843Z,75.00
2023-02-02T15:18:03.363Z,74.90
2023-02-02T15:20:34.281Z,75.00
2023-02-02T15:23:04.647Z,75.20
2023-02-02T15:25:35.547Z,75.10
2023-02-02T15:28:09.899Z,75.10
2023-02-02T15:30:40.184Z,75.50
2023-02-02T15:33:16.680Z,75.50
2023-02-02T15:35:48.173Z,75.50
2023-02-02T15:38:20.425Z,75.70
2023-02-02T15:40:48.806Z,75.60
2023-02-02T15:43:18.521Z,75.70
2023-02-02T15:45:49.763Z,75.90
2023-02-02T15:48:25.409Z,75.90
2023-02-02T15:50:59.110Z,76.20
2023-02-02T15:53:28.345Z,76.30
2023-02-02T15:55:57.413Z,76.00
2023-02-02T15:58:27.712Z,76.00
2023-02-02T16:01:03.115Z,76.10
2023-02-02T16:03:44.222Z,76.20
2023-02-02T16:06:13.908Z,76.30
2023-02-02T16:08:42.526Z,76.40
2023-02-02T16:11:13.341Z,76.50
2023-02-02T16:13:42.030Z,76.60
2023-02-02T16:16:22.939Z,76.60
2023-02-02T16:19:02.992Z,76.70
2023-02-02T16:21:33.889Z,76.60
2023-02-02T16:24:04.018Z,76.80
2023-02-02T16:26:32.613Z,76.80
2023-02-02T16:29:00.987Z,76.90
2023-02-02T16:31:31.565Z,77.00
2023-02-02T16:34:02.484Z,77.10
2023-02-02T16:36:32.554Z,77.20
2023-02-02T16:39:01.755Z,77.10
2023-02-02T16:41:33.769Z,77.10
2023-02-02T16:44:20.683Z,77.10
2023-02-02T16:46:50.052Z,76.90
2023-02-02T16:49:19.500Z,76.80
2023-02-02T16:51:50.257Z,76.60
2023-02-02T16:54:20.700Z,76.60
2023-02-02T16:56:51.810Z,76.60
2023-02-02T16:59:23.898Z,76.50
2023-02-02T17:01:54.191Z,76.40
2023-02-02T17:04:25.774Z,76.40
2023-02-02T17:06:56.468Z,76.30
2023-02-02T17:09:33.131Z,76.20
2023-02-02T17:12:14.313Z,76.20
2023-02-02T17:14:53.281Z,76.20
2023-02-02T17:17:22.470Z,76.20
2023-02-02T17:19:50.730Z,76.30
2023-02-02T17:22:21.908Z,75.90
2023-02-02T17:24:52.165Z,75.80
2023-02-02T17:27:24.201Z,76.00
2023-02-02T17:29:52.473Z,76.00
2023-02-02T17:32:20.600Z,76.00
2023-02-02T17:34:50.795Z,76.00
2023-02-02T17:37:20.584Z,76.00
2023-02-02T17:39:50.753Z,76.00
2023-02-02T17:42:24.305Z,76.00
2023-02-02T17:44:52.894Z,76.10
2023-02-02T17:47:21.022Z,76.30
2023-02-02T17:49:49.053Z,76.40
2023-02-02T17:52:17.450Z,76.60
2023-02-02T17:54:46.934Z,76.60
2023-02-02T17:57:15.550Z,76.70
2023-02-02T17:59:44.259Z,76.70
2023-02-02T18:02:14.872Z,76.80
2023-02-02T18:04:45.618Z,76.80
2023-02-02T18:07:13.806Z,76.80
2023-02-02T18:09:41.823Z,76.80
2023-02-02T18:12:11.597Z,76.70
2023-02-02T18:14:39.835Z,76.70
2023-02-02T18:17:09.747Z,76.70
2023-02-02T18:19:39.294Z,76.50
2023-02-02T18:22:07.706Z,76.70
2023-02-02T18:24:36.218Z,76.80
2023-02-02T18:27:04.288Z,76.70
2023-02-02T18:29:33.676Z,76.80
2023-02-02T18:32:03.131Z,76.60
2023-02-02T18:34:33.870Z,76.60
2023-02-02T18:37:03.040Z,76.40
2023-02-02T18:39:31.753Z,76.30
2023-02-02T18:42:00.369Z,76.40
2023-02-02T18:44:29.263Z,76.50
2023-02-02T18:46:59.394Z,76.50
2023-02-02T18:49:27.904Z,76.50
2023-02-02T18:51:57.413Z,76.40
2023-02-02T18:54:28.955Z,76.40
2023-02-02T18:56:59.864Z,76.60
2023-02-02T18:59:29.054Z,76.60
2023-02-02T19:02:00.512Z,76.60
2023-02-02T19:04:29.184Z,76.80
2023-02-02T19:07:15.102Z,76.60
2023-02-02T19:09:45.804Z,76.80
2023-02-02T19:12:19.354Z,76.80
2023-02-02T19:14:47.704Z,76.80
2023-02-02T19:17:21.677Z,77.00
2023-02-02T19:19:50.259Z,77.20
2023-02-02T19:22:20.621Z,77.20
2023-02-02T19:24:49.289Z,77.30
2023-02-02T19:27:22.219Z,77.50
2023-02-02T19:29:52.879Z,77.60
2023-02-02T19:32:26.865Z,77.50
2023-02-02T19:34:57.291Z,77.60
2023-02-02T19:37:27.083Z,77.70
2023-02-02T19:39:56.969Z,77.70
2023-02-02T19:42:25.908Z,77.90
2023-02-02T19:44:54.403Z,77.90
2023-02-02T19:47:27.444Z,78.10
2023-02-02T19:49:56.027Z,78.20
2023-02-02T19:52:25.768Z,78.20
2023-02-02T19:54:55.540Z,78.20
2023-02-02T19:57:28.058Z,78.40
2023-02-02T19:59:56.908Z,78.40
2023-02-02T20:02:39.855Z,78.40
2023-02-02T20:05:16.266Z,78.30
2023-02-02T20:07:46.181Z,78.40
2023-02-02T20:10:18.877Z,78.40
2023-02-02T20:12:50.891Z,78.30
2023-02-02T20:15:26.650Z,78.20
2023-02-02T20:17:57.027Z,78.10
2023-02-02T20:20:26.451Z,78.10
2023-02-02T20:22:55.753Z,78.00
2023-02-02T20:25:24.268Z,78.10
2023-02-02T20:27:52.457Z,78.00
2023-02-02T20:30:22.424Z,78.10
2023-02-02T20:32:52.538Z,78.10
2023-02-02T20:35:29.416Z,78.00
2023-02-02T20:37:57.330Z,78.10
2023-02-02T20:40:27.461Z,78.10
2023-02-02T20:42:58.873Z,78.10
2023-02-02T20:45:28.018Z,78.10
2023-02-02T20:47:56.034Z,78.20
2023-02-02T20:50:24.515Z,78.10
2023-02-02T20:52:55.938Z,78.00
2023-02-02T20:55:23.971Z,78.20
2023-02-02T20:57:53.434Z,78.20
2023-02-02T21:00:27.200Z,78.40
2023-02-02T21:02:56.213Z,78.40
2023-02-02T21:05:24.381Z,78.50
2023-02-02T21:07:55.105Z,78.40
2023-02-02T21:10:25.874Z,78.50
2023-02-02T21:12:54.220Z,78.60
2023-02-02T21:15:22.269Z,78.50
2023-02-02T21:17:59.789Z,78.50
2023-02-02T21:20:28.435Z,78.60
2023-02-02T21:22:58.958Z,78.60
2023-02-02T21:25:29.743Z,78.60
2023-02-02T21:27:59.601Z,78.70
2023-02-02T21:30:28.258Z,78.70
2023-02-02T21:32:57.044Z,78.80
2023-02-02T21:35:27.929Z,79.00
2023-02-02T21:37:58.761Z,79.20
2023-02-02T21:40:31.399Z,79.50
2023-02-02T21:43:01.704Z,79.90
2023-02-02T21:45:34.950Z,80.20
2023-02-02T21:48:04.039Z,80.10
2023-02-02T21:50:35.275Z,80.10
2023-02-02T21:53:20.448Z,80.10
2023-02-02T21:55:53.455Z,80.10
2023-02-02T21:58:25.346Z,80.00
2023-02-02T22:00:55.107Z,79.80
2023-02-02T22:03:27.416Z,79.70
2023-02-02T22:06:01.041Z,79.80
2023-02-02T22:08:29.169Z,79.50
2023-02-02T22:10:59.014Z,79.50
2023-02-02T22:13:33.979Z,79.70
2023-02-02T22:16:03.568Z,79.70
2023-02-02T22:18:34.323Z,79.80
2023-02-02T22:21:02.673Z,79.90
2023-02-02T22:23:30.733Z,80.10
2023-02-02T22:26:03.127Z,80.20
2023-02-02T22:28:34.261Z,80.10
2023-02-02T22:31:16.415Z,80.10
2023-02-02T22:33:48.637Z,80.10
2023-02-02T22:39:20.662Z,80.00
2023-02-02T22:45:03.489Z,79.90
2023-02-02T22:47:34.766Z,79.90
2023-02-02T22:50:02.710Z,79.80
2023-02-02T22:52:35.971Z,79.80
2023-02-02T22:55:06.396Z,79.80
2023-02-02T22:57:39.926Z,79.80
2023-02-02T23:00:10.605Z,79.80
2023-02-02T23:02:46.798Z,79.80
2023-02-02T23:05:27.382Z,79.80
2023-02-02T23:10:42.636Z,79.90
2023-02-02T23:13:16.614Z,79.90
2023-02-02T23:15:45.102Z,79.90
2023-02-02T23:18:13.837Z,79.90
2023-02-02T23:20:41.897Z,79.90
2023-02-02T23:23:10.021Z,79.80
2023-02-02T23:25:38.652Z,79.80
2023-02-02T23:28:09.931Z,79.80
2023-02-02T23:30:39.600Z,79.80
2023-02-02T23:33:07.833Z,80.00
2023-02-02T23:35:36.151Z,80.10
2023-02-02T23:38:04.201Z,80.30
2023-02-02T23:40:32.335Z,80.40
2023-02-02T23:43:00.542Z,80.50
2023-02-02T23:45:28.667Z,80.60
2023-02-02T23:47:58.331Z,80.60
2023-02-02T23:50:27.133Z,80.70
2023-02-02T23:52:55.907Z,80.70
2023-02-02T23:55:23.970Z,80.60
2023-02-02T23:57:52.357Z,80.60
